createdAt,value
2023-04-23T00:00:39.841Z,93.08
2023-04-23T00:01:39.846Z,92.99
2023-04-23T00:02:39.926Z,93.19
2023-04-23T00:03:39.958Z,94.14
2023-04-23T00:04:40.112Z,94.04
2023-04-23T00:05:39.778Z,94.14
2023-04-23T00:06:39.861Z,94.04
2023-04-23T00:07:39.751Z,94.14
2023-04-23T00:08:39.760Z,94.14
2023-04-23T00:09:39.746Z,94.04
2023-04-23T00:10:39.728Z,94.14
2023-04-23T00:11:39.703Z,93.94
2023-04-23T00:12:39.706Z,94.04
2023-04-23T00:13:39.722Z,94.04
2023-04-23T00:14:39.942Z,94.04
2023-04-23T00:15:39.665Z,93.94
2023-04-23T00:16:39.695Z,94.04
2023-04-23T00:17:39.659Z,94.04
2023-04-23T00:18:39.652Z,94.14
2023-04-23T00:19:39.633Z,94.14
2023-04-23T00:20:39.615Z,94.14
2023-04-23T00:21:39.606Z,94.14
2023-04-23T00:22:39.585Z,94.24
2023-04-23T00:23:39.589Z,94.24
2023-04-23T00:24:39.860Z,94.24
2023-04-23T00:25:39.573Z,94.24
2023-04-23T00:26:39.537Z,94.24
2023-04-23T00:27:39.544Z,94.24
2023-04-23T00:28:39.543Z,94.14
2023-04-23T00:29:39.522Z,94.14
2023-04-23T00:30:39.494Z,94.14
2023-04-23T00:31:39.528Z,94.14
2023-04-23T00:32:39.490Z,94.19
2023-04-23T00:33:39.455Z,94.19
2023-04-23T00:34:39.784Z,94.29
2023-04-23T00:35:39.438Z,94.29
2023-04-23T00:36:39.422Z,94.29
2023-04-23T00:37:39.449Z,94.19
2023-04-23T00:38:39.404Z,94.19
2023-04-23T00:39:39.406Z,94.29
2023-04-23T00:40:39.386Z,94.19
2023-04-23T00:41:39.375Z,94.29
2023-04-23T00:42:39.398Z,94.29
2023-04-23T00:43:39.362Z,94.29
2023-04-23T00:44:39.462Z,94.29
2023-04-23T00:45:39.342Z,94.29
2023-04-23T00:46:39.311Z,94.29
2023-04-23T00:47:39.334Z,94.29
2023-04-23T00:48:39.286Z,94.39
2023-04-23T00:49:39.332Z,94.39
2023-04-23T00:50:39.293Z,94.49
2023-04-23T00:51:39.270Z,94.59
2023-04-23T00:52:39.246Z,94.70
2023-04-23T00:53:39.234Z,94.79
2023-04-23T00:54:39.415Z,94.64
2023-04-23T00:55:39.224Z,94.74
2023-04-23T00:56:39.219Z,94.74
2023-04-23T00:57:39.194Z,94.74
2023-04-23T00:58:39.190Z,94.74
2023-04-23T00:59:39.203Z,94.74
2023-04-23T01:00:39.169Z,94.74
2023-04-23T01:01:39.224Z,94.74
2023-04-23T01:02:39.268Z,94.74
2023-04-23T01:03:39.273Z,94.94
2023-04-23T01:04:39.339Z,94.94
2023-04-23T01:05:39.125Z,95.04
2023-04-23T01:06:39.114Z,94.94
2023-04-23T01:07:39.092Z,95.04
2023-04-23T01:08:39.070Z,95.04
2023-04-23T01:09:39.080Z,94.94
2023-04-23T01:10:39.052Z,94.94
2023-04-23T01:11:39.068Z,94.89
2023-04-23T01:12:39.088Z,94.89
2023-04-23T01:13:39.029Z,94.89
2023-04-23T01:14:39.223Z,94.89
2023-04-23T01:15:38.999Z,94.78
2023-04-23T01:16:39.046Z,94.78
2023-04-23T01:17:39.024Z,94.68
2023-04-23T01:18:38.958Z,94.68
2023-04-23T01:19:39.001Z,94.58
2023-04-23T01:20:38.950Z,94.48
2023-04-23T01:21:38.940Z,94.48
2023-04-23T01:22:38.918Z,94.38
2023-04-23T01:23:38.910Z,94.38
2023-04-23T01:24:39.324Z,94.38
2023-04-23T01:25:38.899Z,94.38
2023-04-23T01:26:38.873Z,94.48
2023-04-23T01:27:38.878Z,94.58
2023-04-23T01:28:38.870Z,94.58
2023-04-23T01:29:38.887Z,94.68
2023-04-23T01:30:38.880Z,94.68
2023-04-23T01:31:38.834Z,94.68
2023-04-23T01:32:38.821Z,94.89
2023-04-23T01:33:38.805Z,94.89
2023-04-23T01:34:39.018Z,94.98
2023-04-23T01:35:38.810Z,94.98
2023-04-23T01:36:38.787Z,95.09
2023-04-23T01:37:38.770Z,95.09
2023-04-23T01:38:38.749Z,95.19
2023-04-23T01:39:38.767Z,95.19
2023-04-23T01:40:38.720Z,95.19
2023-04-23T01:41:38.758Z,95.19
2023-04-23T01:42:38.695Z,95.19
2023-04-23T01:43:38.693Z,95.19
2023-04-23T01:44:38.789Z,95.29
2023-04-23T01:45:38.698Z,95.39
2023-04-23T01:46:38.768Z,95.50
2023-04-23T01:47:38.697Z,95.39
2023-04-23T01:48:38.664Z,95.39
2023-04-23T01:49:38.656Z,95.19
2023-04-23T01:50:38.612Z,94.78
2023-04-23T01:51:38.617Z,93.37
2023-04-23T01:52:38.598Z,92.25
2023-04-23T01:53:38.611Z,90.97
2023-04-23T01:54:38.989Z,91.12
2023-04-23T01:55:38.596Z,91.63
2023-04-23T01:56:38.591Z,91.73
2023-04-23T01:57:38.609Z,91.73
2023-04-23T01:58:38.586Z,91.73
2023-04-23T01:59:38.568Z,91.42
2023-04-23T02:00:38.510Z,91.47
2023-04-23T02:01:38.549Z,91.77
2023-04-23T02:02:38.616Z,91.87
2023-04-23T02:03:38.564Z,92.03
2023-04-23T02:04:38.748Z,92.03
2023-04-23T02:05:38.469Z,91.97
2023-04-23T02:06:38.463Z,91.77
2023-04-23T02:07:38.424Z,91.56
2023-04-23T02:08:38.406Z,91.67
2023-04-23T02:09:38.423Z,91.77
2023-04-23T02:10:38.393Z,91.56
2023-04-23T02:11:38.381Z,91.82
2023-04-23T02:12:38.379Z,91.91
2023-04-23T02:13:38.361Z,92.12
2023-04-23T02:14:38.450Z,92.12
2023-04-23T02:15:38.342Z,91.91
2023-04-23T02:16:38.333Z,92.02
2023-04-23T02:17:38.340Z,91.82
2023-04-23T02:18:38.310Z,91.45
2023-04-23T02:19:38.355Z,91.75
2023-04-23T02:20:38.317Z,92.10
2023-04-23T02:21:38.278Z,92.41
2023-04-23T02:22:38.279Z,92.51
2023-04-23T02:23:38.253Z,92.30
2023-04-23T02:24:38.349Z,92.30
2023-04-23T02:25:38.238Z,92.10
2023-04-23T02:26:38.212Z,91.90
2023-04-23T02:27:38.200Z,92.00
2023-04-23T02:28:38.205Z,92.10
2023-04-23T02:29:38.228Z,91.69
2023-04-23T02:30:38.171Z,91.84
2023-04-23T02:31:38.203Z,91.74
2023-04-23T02:32:38.160Z,92.14
2023-04-23T02:33:38.147Z,92.14
2023-04-23T02:34:38.272Z,92.35
2023-04-23T02:35:38.113Z,92.14
2023-04-23T02:36:38.108Z,92.04
2023-04-23T02:37:38.110Z,91.94
2023-04-23T02:38:38.096Z,92.04
2023-04-23T02:39:38.131Z,91.53
2023-04-23T02:40:38.061Z,91.74
2023-04-23T02:41:38.058Z,91.94
2023-04-23T02:42:38.042Z,92.14
2023-04-23T02:43:38.043Z,92.35
2023-04-23T02:44:38.112Z,92.35
2023-04-23T02:45:38.019Z,92.45
2023-04-23T02:46:38.040Z,92.25
2023-04-23T02:47:38.057Z,92.04
2023-04-23T02:48:38.043Z,91.94
2023-04-23T02:49:37.978Z,91.64
2023-04-23T02:50:37.949Z,91.53
2023-04-23T02:51:37.930Z,91.74
2023-04-23T02:52:37.928Z,91.94
2023-04-23T02:53:37.913Z,91.94
2023-04-23T02:54:37.939Z,92.04
2023-04-23T02:55:37.928Z,92.14
2023-04-23T02:56:37.883Z,92.25
2023-04-23T02:57:37.906Z,91.94
2023-04-23T02:58:37.861Z,92.14
2023-04-23T02:59:37.867Z,92.04
2023-04-23T03:00:37.871Z,92.40
2023-04-23T03:01:37.865Z,92.40
2023-04-23T03:02:37.905Z,92.40
2023-04-23T03:03:37.911Z,92.19
2023-04-23T03:04:37.818Z,92.19
2023-04-23T03:05:37.817Z,92.19
2023-04-23T03:06:37.762Z,92.40
2023-04-23T03:07:37.775Z,92.09
2023-04-23T03:08:37.736Z,91.78
2023-04-23T03:09:37.736Z,91.78
2023-04-23T03:10:37.735Z,91.88
2023-04-23T03:11:37.710Z,91.88
2023-04-23T03:12:37.706Z,91.38
2023-04-23T03:13:37.702Z,91.27
2023-04-23T03:14:37.673Z,91.11
2023-04-23T03:15:37.696Z,90.91
2023-04-23T03:16:37.680Z,91.11
2023-04-23T03:17:37.676Z,91.31
2023-04-23T03:18:37.648Z,91.42
2023-04-23T03:19:37.624Z,91.42
2023-04-23T03:20:37.625Z,91.52
2023-04-23T03:21:37.614Z,91.42
2023-04-23T03:22:37.588Z,91.22
2023-04-23T03:23:37.579Z,91.07
2023-04-23T03:24:37.583Z,90.66
2023-04-23T03:25:37.575Z,90.70
2023-04-23T03:26:37.540Z,90.40
2023-04-23T03:27:39.687Z,90.60
2023-04-23T03:28:37.527Z,90.81
2023-04-23T03:29:37.506Z,91.22
2023-04-23T03:30:37.553Z,91.11
2023-04-23T03:31:37.505Z,91.01
2023-04-23T03:32:37.488Z,91.11
2023-04-23T03:33:37.464Z,91.31
2023-04-23T03:34:37.459Z,91.42
2023-04-23T03:35:37.473Z,91.52
2023-04-23T03:36:37.432Z,91.42
2023-04-23T03:37:37.418Z,90.81
2023-04-23T03:38:37.407Z,91.01
2023-04-23T03:39:37.398Z,91.22
2023-04-23T03:40:37.411Z,91.01
2023-04-23T03:41:37.393Z,90.64
2023-04-23T03:42:37.377Z,90.55
2023-04-23T03:43:37.350Z,90.95
2023-04-23T03:44:37.333Z,91.16
2023-04-23T03:45:37.372Z,91.36
2023-04-23T03:46:37.368Z,91.46
2023-04-23T03:47:37.369Z,91.16
2023-04-23T03:48:37.312Z,90.95
2023-04-23T03:49:37.282Z,90.95
2023-04-23T03:50:37.294Z,91.16
2023-04-23T03:51:37.296Z,91.16
2023-04-23T03:52:37.274Z,91.26
2023-04-23T03:53:37.245Z,91.26
2023-04-23T03:54:37.225Z,91.20
2023-04-23T03:55:37.263Z,91.09
2023-04-23T03:56:37.213Z,91.65
2023-04-23T03:57:37.205Z,91.81
2023-04-23T03:58:37.201Z,92.22
2023-04-23T03:59:37.184Z,92.11
2023-04-23T04:00:37.197Z,92.11
2023-04-23T04:01:37.195Z,92.11
2023-04-23T04:02:37.283Z,92.26
2023-04-23T04:03:37.296Z,92.26
2023-04-23T04:04:37.267Z,92.22
2023-04-23T04:05:37.162Z,92.11
2023-04-23T04:06:37.109Z,92.01
2023-04-23T04:07:37.123Z,92.01
2023-04-23T04:08:37.082Z,92.01
2023-04-23T04:09:37.082Z,92.01
2023-04-23T04:10:37.073Z,92.01
2023-04-23T04:11:37.049Z,91.91
2023-04-23T04:12:37.033Z,91.91
2023-04-23T04:13:37.029Z,91.81
2023-04-23T04:14:37.024Z,91.81
2023-04-23T04:15:37.023Z,91.71
2023-04-23T04:16:37.030Z,91.71
2023-04-23T04:17:36.987Z,91.61
2023-04-23T04:18:36.964Z,91.50
2023-04-23T04:19:36.965Z,91.50
2023-04-23T04:20:36.978Z,91.81
2023-04-23T04:21:36.955Z,92.01
2023-04-23T04:22:36.939Z,92.11
2023-04-23T04:23:36.913Z,92.22
2023-04-23T04:24:36.902Z,91.91
2023-04-23T04:25:36.895Z,91.35
2023-04-23T04:26:36.882Z,91.14
2023-04-23T04:27:36.892Z,91.24
2023-04-23T04:28:36.867Z,91.44
2023-04-23T04:29:36.861Z,91.55
2023-04-23T04:30:36.824Z,91.24
2023-04-23T04:31:36.831Z,91.24
2023-04-23T04:32:36.861Z,90.73
2023-04-23T04:33:36.796Z,90.73
2023-04-23T04:34:36.785Z,90.73
2023-04-23T04:35:36.773Z,91.03
2023-04-23T04:36:36.788Z,91.14
2023-04-23T04:37:36.762Z,90.94
2023-04-23T04:38:36.781Z,91.03
2023-04-23T04:39:36.766Z,91.03
2023-04-23T04:40:36.752Z,90.53
2023-04-23T04:41:36.706Z,90.42
2023-04-23T04:42:36.734Z,90.32
2023-04-23T04:43:36.690Z,90.42
2023-04-23T04:44:36.696Z,90.22
2023-04-23T04:45:36.711Z,90.01
2023-04-23T04:46:36.666Z,90.22
2023-04-23T04:47:36.662Z,90.42
2023-04-23T04:48:36.656Z,90.42
2023-04-23T04:49:36.648Z,90.53
2023-04-23T04:50:36.609Z,90.53
2023-04-23T04:51:36.635Z,90.42
2023-04-23T04:52:36.591Z,90.42
2023-04-23T04:53:36.580Z,90.53
2023-04-23T04:54:36.573Z,90.12
2023-04-23T04:55:36.564Z,90.12
2023-04-23T04:56:36.543Z,90.12
2023-04-23T04:57:36.635Z,90.12
2023-04-23T04:58:36.517Z,90.22
2023-04-23T04:59:36.505Z,89.92
2023-04-23T05:00:36.525Z,89.61
2023-04-23T05:01:36.506Z,89.30
2023-04-23T05:02:36.567Z,89.40
2023-04-23T05:03:36.649Z,89.61
2023-04-23T05:04:36.456Z,89.92
2023-04-23T05:05:36.452Z,89.71
2023-04-23T05:06:36.434Z,89.75
2023-04-23T05:07:36.431Z,89.96
2023-04-23T05:08:36.419Z,89.86
2023-04-23T05:09:36.390Z,89.71
2023-04-23T05:10:36.410Z,89.45
2023-04-23T05:11:36.385Z,89.55
2023-04-23T05:12:36.357Z,89.45
2023-04-23T05:13:36.360Z,89.45
2023-04-23T05:14:36.363Z,89.45
2023-04-23T05:15:36.366Z,89.55
2023-04-23T05:16:36.416Z,89.55
2023-04-23T05:17:36.315Z,89.61
2023-04-23T05:18:36.309Z,89.75
2023-04-23T05:19:36.296Z,89.55
2023-04-23T05:20:36.295Z,89.14
2023-04-23T05:21:36.301Z,89.45
2023-04-23T05:22:36.268Z,89.75
2023-04-23T05:23:36.261Z,89.96
2023-04-23T05:24:36.232Z,89.96
2023-04-23T05:25:36.276Z,89.96
2023-04-23T05:26:36.209Z,89.81
2023-04-23T05:27:36.220Z,89.40
2023-04-23T05:28:36.205Z,89.20
2023-04-23T05:29:36.183Z,89.51
2023-04-23T05:30:36.214Z,89.00
2023-04-23T05:31:36.178Z,89.30
2023-04-23T05:32:36.186Z,89.40
2023-04-23T05:33:46.427Z,89.10
2023-04-23T05:34:36.151Z,89.20
2023-04-23T05:35:42.162Z,89.10
2023-04-23T05:36:36.091Z,89.06
2023-04-23T05:37:36.077Z,88.75
2023-04-23T05:38:36.066Z,88.18
2023-04-23T05:39:36.074Z,87.67
2023-04-23T05:40:36.069Z,87.98
2023-04-23T05:41:36.052Z,88.49
2023-04-23T05:42:36.032Z,88.90
2023-04-23T05:43:36.045Z,89.00
2023-04-23T05:44:36.018Z,88.53
2023-04-23T05:45:36.325Z,88.43
2023-04-23T05:46:36.027Z,88.63
2023-04-23T05:47:36.023Z,88.84
2023-04-23T05:48:35.963Z,89.04
2023-04-23T05:49:35.958Z,89.25
2023-04-23T05:50:35.947Z,89.25
2023-04-23T05:51:35.945Z,89.34
2023-04-23T05:52:35.937Z,89.45
2023-04-23T05:53:35.911Z,89.45
2023-04-23T05:54:35.913Z,89.45
2023-04-23T05:55:35.923Z,89.45
2023-04-23T05:56:35.934Z,89.65
2023-04-23T05:57:35.883Z,89.86
2023-04-23T05:58:35.852Z,89.65
2023-04-23T05:59:35.838Z,89.55
2023-04-23T06:00:35.845Z,89.25
2023-04-23T06:01:35.822Z,88.93
2023-04-23T06:02:35.960Z,88.63
2023-04-23T06:03:36.014Z,88.93
2023-04-23T06:04:36.146Z,89.25
2023-04-23T06:05:35.797Z,89.30
2023-04-23T06:06:35.753Z,89.30
2023-04-23T06:07:35.746Z,87.98
2023-04-23T06:08:35.754Z,88.28
2023-04-23T06:09:35.740Z,88.59
2023-04-23T06:10:35.729Z,88.79
2023-04-23T06:11:35.719Z,88.69
2023-04-23T06:12:35.693Z,88.59
2023-04-23T06:13:35.676Z,88.08
2023-04-23T06:14:35.681Z,88.18
2023-04-23T06:15:35.686Z,88.28
2023-04-23T06:16:35.682Z,88.04
2023-04-23T06:17:35.676Z,87.84
2023-04-23T06:18:35.626Z,87.84
2023-04-23T06:19:35.621Z,87.79
2023-04-23T06:20:35.636Z,87.79
2023-04-23T06:21:35.594Z,87.59
2023-04-23T06:22:35.578Z,87.08
2023-04-23T06:23:35.563Z,87.38
2023-04-23T06:24:35.569Z,87.49
2023-04-23T06:25:35.547Z,87.49
2023-04-23T06:26:35.549Z,86.88
2023-04-23T06:27:35.523Z,87.32
2023-04-23T06:28:35.510Z,87.63
2023-04-23T06:29:35.548Z,87.79
2023-04-23T06:30:35.509Z,87.90
2023-04-23T06:31:35.571Z,86.88
2023-04-23T06:32:35.514Z,87.23
2023-04-23T06:33:35.477Z,87.53
2023-04-23T06:34:35.443Z,87.73
2023-04-23T06:35:35.463Z,86.71
2023-04-23T06:36:35.428Z,86.51
2023-04-23T06:37:35.420Z,86.92
2023-04-23T06:38:35.405Z,86.92
2023-04-23T06:39:35.392Z,87.18
2023-04-23T06:40:35.384Z,87.18
2023-04-23T06:41:35.383Z,86.88
2023-04-23T06:42:35.406Z,86.68
2023-04-23T06:43:35.340Z,86.68
2023-04-23T06:44:35.324Z,85.66
2023-04-23T06:45:35.366Z,86.57
2023-04-23T06:46:35.333Z,86.00
2023-04-23T06:47:35.348Z,86.00
2023-04-23T06:48:35.284Z,86.41
2023-04-23T06:49:34.273Z,87.32
2023-04-23T06:50:35.280Z,87.63
2023-04-23T06:51:35.275Z,87.43
2023-04-23T06:52:35.260Z,86.41
2023-04-23T06:53:35.245Z,85.90
2023-04-23T06:54:35.211Z,85.43
2023-04-23T06:55:35.225Z,85.74
2023-04-23T06:56:35.199Z,86.55
2023-04-23T06:57:35.190Z,86.86
2023-04-23T06:58:35.197Z,86.15
2023-04-23T06:59:35.163Z,86.30
2023-04-23T07:00:35.173Z,86.71
2023-04-23T07:01:35.159Z,87.23
2023-04-23T07:02:35.229Z,87.12
2023-04-23T07:03:35.145Z,86.88
2023-04-23T07:04:35.186Z,86.98
2023-04-23T07:05:35.114Z,86.77
2023-04-23T07:06:35.098Z,85.86
2023-04-23T07:07:35.113Z,84.64
2023-04-23T07:08:35.097Z,84.84
2023-04-23T07:09:35.077Z,85.55
2023-04-23T07:10:35.097Z,85.86
2023-04-23T07:11:35.081Z,85.61
2023-04-23T07:12:35.028Z,84.53
2023-04-23T07:13:35.044Z,84.12
2023-04-23T07:14:35.011Z,84.12
2023-04-23T07:15:35.081Z,84.84
2023-04-23T07:16:35.003Z,84.74
2023-04-23T07:17:35.022Z,85.05
2023-04-23T07:18:35.003Z,85.55
2023-04-23T07:19:34.977Z,86.06
2023-04-23T07:20:34.970Z,85.86
2023-04-23T07:21:34.952Z,85.11
2023-04-23T07:22:34.952Z,84.70
2023-04-23T07:23:35.073Z,85.00
2023-04-23T07:24:34.912Z,85.82
2023-04-23T07:25:34.900Z,83.07
2023-04-23T07:26:34.941Z,83.21
2023-04-23T07:27:34.896Z,83.21
2023-04-23T07:28:34.890Z,84.23
2023-04-23T07:29:34.854Z,84.94
2023-04-23T07:30:34.844Z,85.25
2023-04-23T07:31:34.883Z,85.05
2023-04-23T07:32:34.881Z,84.03
2023-04-23T07:33:34.809Z,84.70
2023-04-23T07:34:36.233Z,85.00
2023-04-23T07:35:34.807Z,84.66
2023-04-23T07:36:34.842Z,84.66
2023-04-23T07:37:34.784Z,84.35
2023-04-23T07:38:34.749Z,84.05
2023-04-23T07:39:34.767Z,84.21
2023-04-23T07:40:34.748Z,83.50
2023-04-23T07:41:34.756Z,82.68
2023-04-23T07:42:34.708Z,82.21
2023-04-23T07:43:34.705Z,83.23
2023-04-23T07:44:34.703Z,84.05
2023-04-23T07:45:34.678Z,84.35
2023-04-23T07:46:34.737Z,82.46
2023-04-23T07:47:34.714Z,83.27
2023-04-23T07:48:34.655Z,84.39
2023-04-23T07:49:34.760Z,85.31
2023-04-23T07:50:34.636Z,84.09
2023-04-23T07:51:34.629Z,84.29
2023-04-23T07:52:34.610Z,84.45
2023-04-23T07:53:34.622Z,84.56
2023-04-23T07:54:34.579Z,84.52
2023-04-23T07:55:34.577Z,84.31
2023-04-23T07:56:34.589Z,83.91
2023-04-23T07:57:34.554Z,82.28
2023-04-23T07:58:34.527Z,82.48
2023-04-23T07:59:34.535Z,83.29
2023-04-23T08:00:34.531Z,83.81
2023-04-23T08:01:34.523Z,83.81
2023-04-23T08:02:34.641Z,82.89
2023-04-23T08:03:34.668Z,82.68
2023-04-23T08:04:34.617Z,82.85
2023-04-23T08:05:34.467Z,81.23
2023-04-23T08:06:34.454Z,82.04
2023-04-23T08:07:34.443Z,82.34
2023-04-23T08:08:35.236Z,82.45
2023-04-23T08:09:34.446Z,82.51
2023-04-23T08:10:34.406Z,82.51
2023-04-23T08:11:34.429Z,81.39
2023-04-23T08:12:34.367Z,81.19
2023-04-23T08:13:34.364Z,81.09
2023-04-23T08:14:34.343Z,81.09
2023-04-23T08:15:34.356Z,80.88
2023-04-23T08:16:36.432Z,81.45
2023-04-23T08:17:34.326Z,80.64
2023-04-23T08:18:34.315Z,80.07
2023-04-23T08:19:34.304Z,80.68
2023-04-23T08:20:34.301Z,80.68
2023-04-23T08:21:34.292Z,80.17
2023-04-23T08:22:34.274Z,81.19
2023-04-23T08:23:34.277Z,80.47
2023-04-23T08:24:34.234Z,81.93
2023-04-23T08:25:34.216Z,81.33
2023-04-23T08:26:34.254Z,81.84
2023-04-23T08:27:34.210Z,82.34
2023-04-23T08:28:34.212Z,82.92
2023-04-23T08:29:34.175Z,83.12
2023-04-23T08:30:34.174Z,82.06
2023-04-23T08:31:34.200Z,81.15
2023-04-23T08:32:34.252Z,80.33
2023-04-23T08:33:34.144Z,79.16
2023-04-23T08:34:35.773Z,79.36
2023-04-23T08:35:34.131Z,80.00
2023-04-23T08:36:34.140Z,80.92
2023-04-23T08:37:34.114Z,81.02
2023-04-23T08:38:34.080Z,80.82
2023-04-23T08:39:34.063Z,81.53
2023-04-23T08:40:34.054Z,81.02
2023-04-23T08:41:34.070Z,81.02
2023-04-23T08:42:34.036Z,81.49
2023-04-23T08:43:34.045Z,81.90
2023-04-23T08:44:34.008Z,81.56
2023-04-23T08:45:34.005Z,80.24
2023-04-23T08:46:34.017Z,80.03
2023-04-23T08:47:34.004Z,79.93
2023-04-23T08:48:33.984Z,80.84
2023-04-23T08:49:33.950Z,81.21
2023-04-23T08:50:33.959Z,79.42
2023-04-23T08:51:33.954Z,79.93
2023-04-23T08:52:33.962Z,79.72
2023-04-23T08:53:33.936Z,79.99
2023-04-23T08:54:33.922Z,79.69
2023-04-23T08:55:33.915Z,79.18
2023-04-23T08:56:33.908Z,78.98
2023-04-23T08:57:33.869Z,79.35
2023-04-23T08:58:33.859Z,79.45
2023-04-23T08:59:33.843Z,79.75
2023-04-23T09:00:33.852Z,79.21
2023-04-23T09:01:33.845Z,79.31
2023-04-23T09:02:33.877Z,79.98
2023-04-23T09:03:33.853Z,79.47
2023-04-23T09:04:33.822Z,79.88
2023-04-23T09:05:33.780Z,79.64
2023-04-23T09:06:33.793Z,76.94
2023-04-23T09:07:33.757Z,75.35
2023-04-23T09:08:33.772Z,75.09
2023-04-23T09:09:33.745Z,75.29
2023-04-23T09:10:33.734Z,76.91
2023-04-23T09:11:33.727Z,77.72
2023-04-23T09:12:33.715Z,77.01
2023-04-23T09:13:33.720Z,77.99
2023-04-23T09:14:33.685Z,78.70
2023-04-23T09:15:33.670Z,78.66
2023-04-23T09:16:33.722Z,78.12
2023-04-23T09:17:33.719Z,77.21
2023-04-23T09:18:33.663Z,74.71
2023-04-23T09:19:33.640Z,76.23
2023-04-23T09:20:33.633Z,77.01
2023-04-23T09:21:33.613Z,77.72
2023-04-23T09:22:33.600Z,77.37
2023-04-23T09:23:33.583Z,76.56
2023-04-23T09:24:33.571Z,76.43
2023-04-23T09:25:33.566Z,77.14
2023-04-23T09:26:33.564Z,77.30
2023-04-23T09:27:33.544Z,75.68
2023-04-23T09:28:33.523Z,74.43
2023-04-23T09:29:33.508Z,73.66
2023-04-23T09:30:33.543Z,71.50
2023-04-23T09:31:33.524Z,73.15
2023-04-23T09:32:33.561Z,73.76
2023-04-23T09:33:33.476Z,74.23
2023-04-23T09:34:33.464Z,73.05
2023-04-23T09:35:33.448Z,71.94
2023-04-23T09:36:33.474Z,74.27
2023-04-23T09:37:33.444Z,72.95
2023-04-23T09:38:33.418Z,74.16
2023-04-23T09:39:33.427Z,74.67
2023-04-23T09:40:33.395Z,73.72
2023-04-23T09:41:33.398Z,71.30
2023-04-23T09:42:33.370Z,71.50
2023-04-23T09:43:33.364Z,71.70
2023-04-23T09:44:33.348Z,69.98
2023-04-23T09:45:33.344Z,69.48
2023-04-23T09:46:33.351Z,71.30
2023-04-23T09:47:33.335Z,71.80
2023-04-23T09:48:33.306Z,70.49
2023-04-23T09:49:33.313Z,70.39
2023-04-23T09:50:33.296Z,70.79
2023-04-23T09:51:33.283Z,69.45
2023-04-23T09:52:33.275Z,67.12
2023-04-23T09:53:33.250Z,65.94
2023-04-23T09:54:33.250Z,67.15
2023-04-23T09:55:33.245Z,69.45
2023-04-23T09:56:33.239Z,67.63
2023-04-23T09:57:33.207Z,69.14
2023-04-23T09:58:33.189Z,69.55
2023-04-23T09:59:46.787Z,68.40
2023-04-23T10:00:33.172Z,68.20
2023-04-23T10:01:33.228Z,68.10
2023-04-23T10:02:33.221Z,67.80
2023-04-23T10:03:33.254Z,67.09
2023-04-23T10:04:33.362Z,65.98
2023-04-23T10:05:49.803Z,68.00
2023-04-23T10:06:44.330Z,67.09
2023-04-23T10:07:33.107Z,67.80
2023-04-23T10:08:33.079Z,66.89
2023-04-23T10:09:33.061Z,66.69
2023-04-23T10:11:33.060Z,69.18
2023-04-23T10:12:52.085Z,70.29
2023-04-23T10:13:33.027Z,66.82
2023-04-23T10:14:33.010Z,69.45
2023-04-23T10:15:33.017Z,66.69
2023-04-23T10:16:46.061Z,68.21
2023-04-23T10:17:33.002Z,68.71
2023-04-23T10:18:32.964Z,65.38
2023-04-23T10:19:32.951Z,65.75
2023-04-23T10:20:32.945Z,66.66
2023-04-23T10:21:46.243Z,64.81
2023-04-23T10:22:32.933Z,63.70
2023-04-23T10:23:32.911Z,63.30
2023-04-23T10:24:32.896Z,64.31
2023-04-23T10:25:32.896Z,65.72
2023-04-23T10:26:32.901Z,66.73
2023-04-23T10:27:40.299Z,67.80
2023-04-23T10:28:32.870Z,66.39
2023-04-23T10:29:32.839Z,64.55
2023-04-23T10:30:32.818Z,65.16
2023-04-23T10:31:32.933Z,64.52
2023-04-23T10:32:32.834Z,62.10
2023-04-23T10:33:37.629Z,64.02
2023-04-23T10:34:32.817Z,64.92
2023-04-23T10:35:32.814Z,63.82
2023-04-23T10:36:32.778Z,62.81
2023-04-23T10:37:32.754Z,63.01
2023-04-23T10:38:32.747Z,63.62
2023-04-23T10:39:32.733Z,61.93
2023-04-23T10:40:32.724Z,64.32
2023-04-23T10:41:32.726Z,64.22
2023-04-23T10:42:32.709Z,65.33
2023-04-23T10:43:32.692Z,66.20
2023-04-23T10:44:50.186Z,63.68
2023-04-23T10:45:32.667Z,62.65
2023-04-23T10:46:32.713Z,62.85
2023-04-23T10:47:32.691Z,61.94
2023-04-23T10:48:32.630Z,59.76
2023-04-23T10:49:32.619Z,61.17
2023-04-23T10:50:32.604Z,60.97
2023-04-23T10:52:14.891Z,61.67
2023-04-23T10:52:32.592Z,62.68
2023-04-23T10:53:32.572Z,63.18
2023-04-23T10:54:32.615Z,63.99
2023-04-23T10:55:32.560Z,64.06
2023-04-23T10:56:32.558Z,64.06
2023-04-23T10:57:32.530Z,63.93
2023-04-23T10:58:32.552Z,64.73
2023-04-23T10:59:32.525Z,59.50
2023-04-23T11:00:32.527Z,61.21
2023-04-23T11:01:32.545Z,61.91
2023-04-23T11:02:32.552Z,58.60
2023-04-23T11:03:32.776Z,59.60
2023-04-23T11:04:32.687Z,59.43
2023-04-23T11:05:32.437Z,61.65
2023-04-23T11:06:32.440Z,62.82
2023-04-23T11:07:32.423Z,59.60
2023-04-23T11:08:32.425Z,61.01
2023-04-23T11:09:32.407Z,62.02
2023-04-23T11:10:32.387Z,60.81
2023-04-23T11:11:32.436Z,59.20
2023-04-23T11:12:32.378Z,61.41
2023-04-23T11:13:32.377Z,61.51
2023-04-23T11:14:32.364Z,59.41
2023-04-23T11:15:32.333Z,59.70
2023-04-23T11:16:32.415Z,59.20
2023-04-23T11:17:32.337Z,60.28
2023-04-23T11:18:32.289Z,60.78
2023-04-23T11:19:32.292Z,60.48
2023-04-23T11:20:32.276Z,58.84
2023-04-23T11:21:32.280Z,60.25
2023-04-23T11:22:32.276Z,58.72
2023-04-23T11:23:32.269Z,58.31
2023-04-23T11:24:32.252Z,59.22
2023-04-23T11:25:32.219Z,60.29
2023-04-23T11:26:32.226Z,57.11
2023-04-23T11:27:32.223Z,57.54
2023-04-23T11:28:32.190Z,57.64
2023-04-23T11:29:32.174Z,58.24
2023-04-23T11:30:32.168Z,59.62
2023-04-23T11:31:32.324Z,58.72
2023-04-23T11:32:32.293Z,56.71
2023-04-23T11:33:32.138Z,55.23
2023-04-23T11:34:32.134Z,56.56
2023-04-23T11:35:38.682Z,58.75
2023-04-23T11:36:32.109Z,56.74
2023-04-23T11:37:32.078Z,56.09
2023-04-23T11:38:32.075Z,58.60
2023-04-23T11:39:32.074Z,57.29
2023-04-23T11:40:32.057Z,59.00
2023-04-23T11:41:32.059Z,57.29
2023-04-23T11:42:32.036Z,58.90
2023-04-23T11:43:32.026Z,56.69
2023-04-23T11:44:32.103Z,58.90
2023-04-23T11:45:32.002Z,59.58
2023-04-23T11:46:32.026Z,60.25
2023-04-23T11:47:32.026Z,59.14
2023-04-23T11:48:31.985Z,56.93
2023-04-23T11:49:32.000Z,57.11
2023-04-23T11:50:31.976Z,56.03
2023-04-23T11:51:31.936Z,55.73
2023-04-23T11:52:31.918Z,57.04
2023-04-23T11:53:31.944Z,55.73
2023-04-23T11:54:31.899Z,56.43
2023-04-23T11:55:31.887Z,56.93
2023-04-23T11:56:31.891Z,58.34
2023-04-23T11:57:31.858Z,55.53
2023-04-23T11:58:31.858Z,54.93
2023-04-23T11:59:31.865Z,56.84
2023-04-23T12:00:31.835Z,56.23
2023-04-23T12:01:31.885Z,57.24
2023-04-23T12:02:31.879Z,58.31
2023-04-23T12:03:31.973Z,56.58
2023-04-23T12:04:31.900Z,56.08
2023-04-23T12:05:31.825Z,58.26
2023-04-23T12:06:31.766Z,58.06
2023-04-23T12:07:31.769Z,56.52
2023-04-23T12:08:31.745Z,56.13
2023-04-23T12:09:31.736Z,54.80
2023-04-23T12:10:31.740Z,55.90
2023-04-23T12:11:31.734Z,55.30
2023-04-23T12:12:31.717Z,52.42
2023-04-23T12:13:31.688Z,54.72
2023-04-23T12:14:31.677Z,54.15
2023-04-23T12:15:31.674Z,54.07
2023-04-23T12:16:31.864Z,54.27
2023-04-23T12:17:31.695Z,54.60
2023-04-23T12:18:31.649Z,55.71
2023-04-23T12:19:31.630Z,55.38
2023-04-23T12:20:31.602Z,56.56
2023-04-23T12:21:31.621Z,55.35
2023-04-23T12:22:31.610Z,56.50
2023-04-23T12:23:31.592Z,54.70
2023-04-23T12:24:31.584Z,53.59
2023-04-23T12:25:31.550Z,54.50
2023-04-23T12:26:31.587Z,54.70
2023-04-23T12:27:31.531Z,55.17
2023-04-23T12:28:31.525Z,56.27
2023-04-23T12:29:31.534Z,54.57
2023-04-23T12:30:31.497Z,52.49
2023-04-23T12:31:31.517Z,53.12
2023-04-23T12:32:31.541Z,54.70
2023-04-23T12:33:31.493Z,55.60
2023-04-23T12:34:31.492Z,55.20
2023-04-23T12:35:31.473Z,54.60
2023-04-23T12:36:31.451Z,55.70
2023-04-23T12:37:31.440Z,57.10
2023-04-23T12:38:31.457Z,56.77
2023-04-23T12:39:31.444Z,55.94
2023-04-23T12:40:31.383Z,55.05
2023-04-23T12:41:32.998Z,54.12
2023-04-23T12:42:31.370Z,54.29
2023-04-23T12:43:31.355Z,53.59
2023-04-23T12:44:31.376Z,51.79
2023-04-23T12:45:31.325Z,53.09
2023-04-23T12:46:31.365Z,52.12
2023-04-23T12:47:31.340Z,52.42
2023-04-23T12:48:31.311Z,53.22
2023-04-23T12:49:31.315Z,54.69
2023-04-23T12:50:31.303Z,53.19
2023-04-23T12:51:31.279Z,53.42
2023-04-23T12:52:31.288Z,52.47
2023-04-23T12:53:31.264Z,53.50